sensor_id;sensor_type;location;lat;lon;timestamp;P1;durP1;ratioP1;P2;durP2;ratioP2
10063;SDS011;5071;52.360;13.134;2022-10-17T00:02:17;1.67;;;1.50;;
10063;SDS011;5071;52.360;13.134;2022-10-17T00:07:21;5.83;;;1.97;;
10063;SDS011;5071;52.360;13.134;2022-10-17T00:12:23;1.93;;;1.57;;
10063;SDS011;5071;52.360;13.134;2022-10-17T00:17:25;2.43;;;1.60;;
10063;SDS011;5071;52.360;13.134;2022-10-17T00:22:28;2.20;;;2.00;;
10063;SDS011;5071;52.360;13.134;2022-10-17T00:27:33;1.97;;;1.77;;
10063;SDS011;5071;52.360;13.134;2022-10-17T00:32:35;2.87;;;2.00;;
10063;SDS011;5071;52.360;13.134;2022-10-17T00:37:38;3.00;;;2.10;;
10063;SDS011;5071;52.360;13.134;2022-10-17T00:42:40;3.63;;;1.80;;
10063;SDS011;5071;52.360;13.134;2022-10-17T00:47:42;2.87;;;1.70;;
10063;SDS011;5071;52.360;13.134;2022-10-17T00:52:50;2.93;;;2.07;;
10063;SDS011;5071;52.360;13.134;2022-10-17T00:57:52;2.03;;;1.90;;
10063;SDS011;5071;52.360;13.134;2022-10-17T01:02:54;2.40;;;1.90;;
10063;SDS011;5071;52.360;13.134;2022-10-17T01:07:57;3.00;;;1.73;;
10063;SDS011;5071;52.360;13.134;2022-10-17T01:13:04;1.93;;;1.63;;
10063;SDS011;5071;52.360;13.134;2022-10-17T01:18:14;2.10;;;1.60;;
10063;SDS011;5071;52.360;13.134;2022-10-17T01:23:30;2.97;;;1.67;;
10063;SDS011;5071;52.360;13.134;2022-10-17T01:29:11;1.53;;;1.40;;
10063;SDS011;5071;52.360;13.134;2022-10-17T01:34:29;1.80;;;1.70;;
10063;SDS011;5071;52.360;13.134;2022-10-17T01:39:36;2.17;;;1.63;;
10063;SDS011;5071;52.360;13.134;2022-10-17T01:44:48;1.77;;;1.40;;
10063;SDS011;5071;52.360;13.134;2022-10-17T01:49:57;2.57;;;1.60;;
10063;SDS011;5071;52.360;13.134;2022-10-17T01:55:04;2.80;;;1.87;;
10063;SDS011;5071;52.360;13.134;2022-10-17T02:00:09;1.67;;;1.50;;
10063;SDS011;5071;52.360;13.134;2022-10-17T02:05:16;3.13;;;1.70;;
10063;SDS011;5071;52.360;13.134;2022-10-17T02:10:23;3.40;;;1.63;;
10063;SDS011;5071;52.360;13.134;2022-10-17T02:15:41;4.40;;;1.80;;
10063;SDS011;5071;52.360;13.134;2022-10-17T02:20:55;3.60;;;2.00;;
10063;SDS011;5071;52.360;13.134;2022-10-17T02:26:03;3.67;;;2.27;;
10063;SDS011;5071;52.360;13.134;2022-10-17T02:31:12;2.97;;;2.30;;
10063;SDS011;5071;52.360;13.134;2022-10-17T02:36:19;2.30;;;2.10;;
10063;SDS011;5071;52.360;13.134;2022-10-17T02:41:24;2.20;;;2.00;;
10063;SDS011;5071;52.360;13.134;2022-10-17T02:46:26;2.77;;;2.30;;
10063;SDS011;5071;52.360;13.134;2022-10-17T02:51:32;3.57;;;2.03;;
10063;SDS011;5071;52.360;13.134;2022-10-17T02:56:41;2.83;;;2.07;;
10063;SDS011;5071;52.360;13.134;2022-10-17T03:01:47;2.20;;;2.00;;
10063;SDS011;5071;52.360;13.134;2022-10-17T03:06:52;2.70;;;2.10;;
10063;SDS011;5071;52.360;13.134;2022-10-17T03:11:54;2.83;;;2.10;;
10063;SDS011;5071;52.360;13.134;2022-10-17T03:16:56;3.10;;;2.30;;
10063;SDS011;5071;52.360;13.134;2022-10-17T03:21:59;3.03;;;2.30;;
10063;SDS011;5071;52.360;13.134;2022-10-17T03:27:02;3.60;;;2.40;;
10063;SDS011;5071;52.360;13.134;2022-10-17T03:32:04;3.63;;;2.57;;
10063;SDS011;5071;52.360;13.134;2022-10-17T03:37:08;3.43;;;2.07;;
10063;SDS011;5071;52.360;13.134;2022-10-17T03:42:10;2.93;;;2.33;;
10063;SDS011;5071;52.360;13.134;2022-10-17T03:47:12;2.90;;;2.40;;
10063;SDS011;5071;52.360;13.134;2022-10-17T03:52:16;2.70;;;2.40;;
10063;SDS011;5071;52.360;13.134;2022-10-17T03:57:18;3.77;;;2.57;;
10063;SDS011;5071;52.360;13.134;2022-10-17T04:02:20;4.40;;;2.70;;
10063;SDS011;5071;52.360;13.134;2022-10-17T04:07:23;2.40;;;2.20;;
10063;SDS011;5071;52.360;13.134;2022-10-17T04:12:25;3.57;;;2.13;;
10063;SDS011;5071;52.360;13.134;2022-10-17T04:17:28;3.07;;;2.70;;
10063;SDS011;5071;52.360;13.134;2022-10-17T04:22:37;5.93;;;2.67;;
10063;SDS011;5071;52.360;13.134;2022-10-17T04:27:40;3.03;;;2.33;;
10063;SDS011;5071;52.360;13.134;2022-10-17T04:32:42;4.60;;;3.20;;
10063;SDS011;5071;52.360;13.134;2022-10-17T04:37:45;5.30;;;2.83;;
10063;SDS011;5071;52.360;13.134;2022-10-17T04:42:47;4.07;;;3.00;;
10063;SDS011;5071;52.360;13.134;2022-10-17T04:47:49;3.27;;;2.47;;
10063;SDS011;5071;52.360;13.134;2022-10-17T04:52:52;3.87;;;3.00;;
10063;SDS011;5071;52.360;13.134;2022-10-17T04:57:54;5.17;;;2.50;;
10063;SDS011;5071;52.360;13.134;2022-10-17T05:02:56;3.03;;;2.50;;
10063;SDS011;5071;52.360;13.134;2022-10-17T05:08:00;3.17;;;2.83;;
10063;SDS011;5071;52.360;13.134;2022-10-17T05:13:02;6.33;;;2.80;;
10063;SDS011;5071;52.360;13.134;2022-10-17T05:18:04;3.10;;;2.80;;
10063;SDS011;5071;52.360;13.134;2022-10-17T05:23:09;5.70;;;3.63;;
10063;SDS011;5071;52.360;13.134;2022-10-17T05:28:11;3.80;;;2.87;;
10063;SDS011;5071;52.360;13.134;2022-10-17T05:33:13;4.10;;;3.13;;
10063;SDS011;5071;52.360;13.134;2022-10-17T05:38:16;6.30;;;2.97;;
10063;SDS011;5071;52.360;13.134;2022-10-17T05:43:18;3.20;;;2.87;;
10063;SDS011;5071;52.360;13.134;2022-10-17T05:48:20;4.10;;;3.40;;
10063;SDS011;5071;52.360;13.134;2022-10-17T05:53:24;5.37;;;3.10;;
10063;SDS011;5071;52.360;13.134;2022-10-17T05:58:26;3.90;;;3.20;;
10063;SDS011;5071;52.360;13.134;2022-10-17T06:03:49;3.70;;;3.23;;
10063;SDS011;5071;52.360;13.134;2022-10-17T06:08:52;7.07;;;4.90;;
10063;SDS011;5071;52.360;13.134;2022-10-17T06:13:54;8.13;;;5.70;;
10063;SDS011;5071;52.360;13.134;2022-10-17T06:18:56;8.83;;;6.30;;
10063;SDS011;5071;52.360;13.134;2022-10-17T06:23:59;9.43;;;6.37;;
10063;SDS011;5071;52.360;13.134;2022-10-17T06:29:01;9.50;;;6.73;;
10063;SDS011;5071;52.360;13.134;2022-10-17T06:34:03;9.60;;;6.53;;
10063;SDS011;5071;52.360;13.134;2022-10-17T06:39:06;9.70;;;6.70;;
10063;SDS011;5071;52.360;13.134;2022-10-17T06:44:09;7.43;;;6.20;;
10063;SDS011;5071;52.360;13.134;2022-10-17T06:49:11;11.70;;;6.83;;
10063;SDS011;5071;52.360;13.134;2022-10-17T06:54:15;9.87;;;6.80;;
10063;SDS011;5071;52.360;13.134;2022-10-17T06:59:17;9.07;;;7.17;;
10063;SDS011;5071;52.360;13.134;2022-10-17T07:04:19;8.50;;;6.50;;
10063;SDS011;5071;52.360;13.134;2022-10-17T07:09:22;7.43;;;6.50;;
10063;SDS011;5071;52.360;13.134;2022-10-17T07:14:24;8.23;;;6.07;;
10063;SDS011;5071;52.360;13.134;2022-10-17T07:19:26;8.10;;;5.87;;
10063;SDS011;5071;52.360;13.134;2022-10-17T07:24:29;7.57;;;5.97;;
10063;SDS011;5071;52.360;13.134;2022-10-17T07:29:32;9.10;;;5.87;;
10063;SDS011;5071;52.360;13.134;2022-10-17T07:34:34;8.17;;;6.27;;
10063;SDS011;5071;52.360;13.134;2022-10-17T07:39:37;5.33;;;4.77;;
10063;SDS011;5071;52.360;13.134;2022-10-17T07:44:40;6.13;;;4.70;;
10063;SDS011;5071;52.360;13.134;2022-10-17T07:49:42;6.67;;;4.43;;
10063;SDS011;5071;52.360;13.134;2022-10-17T07:54:45;6.77;;;3.60;;
10063;SDS011;5071;52.360;13.134;2022-10-17T07:59:47;5.10;;;3.43;;
10063;SDS011;5071;52.360;13.134;2022-10-17T08:04:49;3.53;;;2.57;;
10063;SDS011;5071;52.360;13.134;2022-10-17T08:09:52;3.13;;;2.77;;
10063;SDS011;5071;52.360;13.134;2022-10-17T08:14:55;3.33;;;2.10;;
10063;SDS011;5071;52.360;13.134;2022-10-17T08:19:58;2.77;;;2.47;;
10063;SDS011;5071;52.360;13.134;2022-10-17T08:25:01;3.97;;;2.20;;
10063;SDS011;5071;52.360;13.134;2022-10-17T08:30:04;4.07;;;2.37;;
10063;SDS011;5071;52.360;13.134;2022-10-17T08:35:07;4.27;;;2.10;;
10063;SDS011;5071;52.360;13.134;2022-10-17T08:40:13;4.27;;;2.13;;
10063;SDS011;5071;52.360;13.134;2022-10-17T08:45:23;3.57;;;1.77;;
10063;SDS011;5071;52.360;13.134;2022-10-17T08:50:34;2.87;;;2.20;;
10063;SDS011;5071;52.360;13.134;2022-10-17T08:55:40;4.63;;;2.07;;
10063;SDS011;5071;52.360;13.134;2022-10-17T09:00:47;2.87;;;2.23;;
10063;SDS011;5071;52.360;13.134;2022-10-17T09:05:59;2.50;;;1.90;;
10063;SDS011;5071;52.360;13.134;2022-10-17T09:11:17;3.53;;;1.47;;
10063;SDS011;5071;52.360;13.134;2022-10-17T09:16:35;2.13;;;1.83;;
10063;SDS011;5071;52.360;13.134;2022-10-17T09:21:56;3.50;;;1.50;;
10063;SDS011;5071;52.360;13.134;2022-10-17T09:27:02;2.60;;;1.93;;
10063;SDS011;5071;52.360;13.134;2022-10-17T09:32:09;1.60;;;1.47;;
10063;SDS011;5071;52.360;13.134;2022-10-17T09:37:15;3.03;;;2.00;;
10063;SDS011;5071;52.360;13.134;2022-10-17T09:42:19;3.37;;;1.77;;
10063;SDS011;5071;52.360;13.134;2022-10-17T09:47:27;2.60;;;2.07;;
10063;SDS011;5071;52.360;13.134;2022-10-17T09:52:35;3.20;;;1.70;;
10063;SDS011;5071;52.360;13.134;2022-10-17T09:57:54;2.92;;;1.60;;
10063;SDS011;5071;52.360;13.134;2022-10-17T10:03:07;2.00;;;1.63;;
10063;SDS011;5071;52.360;13.134;2022-10-17T10:08:16;2.72;;;1.52;;
10063;SDS011;5071;52.360;13.134;2022-10-17T10:13:21;1.83;;;1.60;;
10063;SDS011;5071;52.360;13.134;2022-10-17T10:18:28;4.50;;;1.85;;
10063;SDS011;5071;52.360;13.134;2022-10-17T10:23:33;1.83;;;1.60;;
10063;SDS011;5071;52.360;13.134;2022-10-17T10:28:37;1.98;;;1.50;;
10063;SDS011;5071;52.360;13.134;2022-10-17T10:33:40;1.50;;;1.40;;
10063;SDS011;5071;52.360;13.134;2022-10-17T10:38:51;2.60;;;1.67;;
10063;SDS011;5071;52.360;13.134;2022-10-17T10:43:56;2.05;;;1.40;;
10063;SDS011;5071;52.360;13.134;2022-10-17T10:48:59;2.53;;;1.65;;
10063;SDS011;5071;52.360;13.134;2022-10-17T10:54:04;1.35;;;1.20;;
10063;SDS011;5071;52.360;13.134;2022-10-17T10:59:14;1.98;;;1.50;;
10063;SDS011;5071;52.360;13.134;2022-10-17T11:04:26;2.97;;;1.77;;
10063;SDS011;5071;52.360;13.134;2022-10-17T11:09:34;1.55;;;1.38;;
10063;SDS011;5071;52.360;13.134;2022-10-17T11:14:48;1.60;;;1.20;;
10063;SDS011;5071;52.360;13.134;2022-10-17T11:19:55;2.35;;;1.33;;
10063;SDS011;5071;52.360;13.134;2022-10-17T11:25:13;2.40;;;1.50;;
10063;SDS011;5071;52.360;13.134;2022-10-17T11:30:25;2.25;;;1.65;;
10063;SDS011;5071;52.360;13.134;2022-10-17T11:35:34;3.00;;;1.58;;
10063;SDS011;5071;52.360;13.134;2022-10-17T11:40:42;1.52;;;1.20;;
10063;SDS011;5071;52.360;13.134;2022-10-17T11:45:48;3.38;;;1.50;;
10063;SDS011;5071;52.360;13.134;2022-10-17T11:50:54;1.50;;;1.40;;
10063;SDS011;5071;52.360;13.134;2022-10-17T11:56:26;2.83;;;1.45;;
10063;SDS011;5071;52.360;13.134;2022-10-17T12:01:38;1.50;;;1.38;;
10063;SDS011;5071;52.360;13.134;2022-10-17T12:06:47;4.13;;;1.50;;
10063;SDS011;5071;52.360;13.134;2022-10-17T12:11:58;1.70;;;1.17;;
10063;SDS011;5071;52.360;13.134;2022-10-17T12:17:04;2.88;;;1.30;;
10063;SDS011;5071;52.360;13.134;2022-10-17T12:22:21;1.83;;;1.60;;
10063;SDS011;5071;52.360;13.134;2022-10-17T12:27:31;3.28;;;1.40;;
10063;SDS011;5071;52.360;13.134;2022-10-17T12:32:38;2.05;;;1.80;;
10063;SDS011;5071;52.360;13.134;2022-10-17T12:38:18;2.13;;;1.40;;
10063;SDS011;5071;52.360;13.134;2022-10-17T12:43:33;1.35;;;1.25;;
10063;SDS011;5071;52.360;13.134;2022-10-17T12:49:01;1.00;;;0.93;;
10063;SDS011;5071;52.360;13.134;2022-10-17T12:54:09;1.42;;;1.13;;
10063;SDS011;5071;52.360;13.134;2022-10-17T12:59:13;1.52;;;1.42;;
10063;SDS011;5071;52.360;13.134;2022-10-17T13:04:19;4.75;;;1.25;;
10063;SDS011;5071;52.360;13.134;2022-10-17T13:09:23;1.35;;;1.20;;
10063;SDS011;5071;52.360;13.134;2022-10-17T13:14:27;1.25;;;1.10;;
10063;SDS011;5071;52.360;13.134;2022-10-17T13:19:40;1.83;;;1.35;;
10063;SDS011;5071;52.360;13.134;2022-10-17T13:24:43;2.22;;;1.33;;
10063;SDS011;5071;52.360;13.134;2022-10-17T13:29:45;3.67;;;1.20;;
10063;SDS011;5071;52.360;13.134;2022-10-17T13:40:15;2.75;;;1.50;;
10063;SDS011;5071;52.360;13.134;2022-10-17T13:45:39;4.38;;;1.15;;
10063;SDS011;5071;52.360;13.134;2022-10-17T13:50:48;3.90;;;1.17;;
10063;SDS011;5071;52.360;13.134;2022-10-17T13:55:53;2.65;;;1.10;;
10063;SDS011;5071;52.360;13.134;2022-10-17T14:01:17;1.27;;;1.17;;
10063;SDS011;5071;52.360;13.134;2022-10-17T14:06:23;3.08;;;1.42;;
10063;SDS011;5071;52.360;13.134;2022-10-17T14:11:29;2.95;;;1.50;;
10063;SDS011;5071;52.360;13.134;2022-10-17T14:16:35;1.55;;;1.33;;
10063;SDS011;5071;52.360;13.134;2022-10-17T14:21:41;2.00;;;1.30;;
10063;SDS011;5071;52.360;13.134;2022-10-17T14:26:45;1.23;;;1.13;;
10063;SDS011;5071;52.360;13.134;2022-10-17T14:31:48;2.28;;;1.30;;
10063;SDS011;5071;52.360;13.134;2022-10-17T14:36:52;1.63;;;1.10;;
10063;SDS011;5071;52.360;13.134;2022-10-17T14:41:55;2.00;;;1.38;;
10063;SDS011;5071;52.360;13.134;2022-10-17T14:47:04;5.00;;;1.70;;
10063;SDS011;5071;52.360;13.134;2022-10-17T14:52:30;1.55;;;1.25;;
10063;SDS011;5071;52.360;13.134;2022-10-17T14:57:39;1.67;;;1.33;;
10063;SDS011;5071;52.360;13.134;2022-10-17T15:02:43;4.85;;;1.25;;
10063;SDS011;5071;52.360;13.134;2022-10-17T15:07:47;1.60;;;1.27;;
10063;SDS011;5071;52.360;13.134;2022-10-17T15:12:50;2.78;;;1.70;;
10063;SDS011;5071;52.360;13.134;2022-10-17T15:18:00;2.28;;;1.70;;
10063;SDS011;5071;52.360;13.134;2022-10-17T15:23:04;2.95;;;1.45;;
10063;SDS011;5071;52.360;13.134;2022-10-17T15:28:06;2.08;;;1.40;;
10063;SDS011;5071;52.360;13.134;2022-10-17T15:33:08;1.83;;;1.40;;
10063;SDS011;5071;52.360;13.134;2022-10-17T15:38:11;2.20;;;1.45;;
10063;SDS011;5071;52.360;13.134;2022-10-17T15:43:18;8.52;;;3.72;;
10063;SDS011;5071;52.360;13.134;2022-10-17T15:48:23;4.22;;;1.40;;
10063;SDS011;5071;52.360;13.134;2022-10-17T15:53:30;1.30;;;1.20;;
10063;SDS011;5071;52.360;13.134;2022-10-17T15:58:33;3.10;;;1.40;;
10063;SDS011;5071;52.360;13.134;2022-10-17T16:03:38;2.70;;;1.30;;
10063;SDS011;5071;52.360;13.134;2022-10-17T16:08:41;2.42;;;1.50;;
10063;SDS011;5071;52.360;13.134;2022-10-17T16:13:44;4.40;;;1.27;;
10063;SDS011;5071;52.360;13.134;2022-10-17T16:18:51;1.75;;;1.45;;
10063;SDS011;5071;52.360;13.134;2022-10-17T16:23:54;1.60;;;1.25;;
10063;SDS011;5071;52.360;13.134;2022-10-17T16:28:57;1.70;;;1.60;;
10063;SDS011;5071;52.360;13.134;2022-10-17T16:34:00;2.95;;;1.50;;
10063;SDS011;5071;52.360;13.134;2022-10-17T16:39:05;2.38;;;1.70;;
10063;SDS011;5071;52.360;13.134;2022-10-17T16:44:09;1.80;;;1.40;;
10063;SDS011;5071;52.360;13.134;2022-10-17T16:49:12;3.93;;;2.10;;
10063;SDS011;5071;52.360;13.134;2022-10-17T16:54:16;2.63;;;1.60;;
10063;SDS011;5071;52.360;13.134;2022-10-17T16:59:18;2.10;;;1.42;;
10063;SDS011;5071;52.360;13.134;2022-10-17T17:04:20;2.70;;;1.67;;
10063;SDS011;5071;52.360;13.134;2022-10-17T17:09:24;3.53;;;1.40;;
10063;SDS011;5071;52.360;13.134;2022-10-17T17:14:26;1.83;;;1.67;;
10063;SDS011;5071;52.360;13.134;2022-10-17T17:19:28;2.00;;;1.43;;
10063;SDS011;5071;52.360;13.134;2022-10-17T17:24:32;2.33;;;1.60;;
10063;SDS011;5071;52.360;13.134;2022-10-17T17:29:34;1.90;;;1.33;;
10063;SDS011;5071;52.360;13.134;2022-10-17T17:34:35;1.63;;;1.43;;
10063;SDS011;5071;52.360;13.134;2022-10-17T17:39:39;2.60;;;1.80;;
10063;SDS011;5071;52.360;13.134;2022-10-17T17:44:41;4.17;;;3.10;;
10063;SDS011;5071;52.360;13.134;2022-10-17T17:49:43;3.57;;;2.83;;
10063;SDS011;5071;52.360;13.134;2022-10-17T17:54:47;4.90;;;2.80;;
10063;SDS011;5071;52.360;13.134;2022-10-17T17:59:49;3.03;;;2.43;;
10063;SDS011;5071;52.360;13.134;2022-10-17T18:04:51;3.30;;;2.20;;
10063;SDS011;5071;52.360;13.134;2022-10-17T18:09:54;3.10;;;2.77;;
10063;SDS011;5071;52.360;13.134;2022-10-17T18:14:56;3.13;;;2.77;;
10063;SDS011;5071;52.360;13.134;2022-10-17T18:19:57;3.53;;;2.70;;
10063;SDS011;5071;52.360;13.134;2022-10-17T18:25:00;3.53;;;2.20;;
10063;SDS011;5071;52.360;13.134;2022-10-17T18:30:02;2.77;;;2.20;;
10063;SDS011;5071;52.360;13.134;2022-10-17T18:35:05;3.27;;;2.20;;
10063;SDS011;5071;52.360;13.134;2022-10-17T18:40:09;4.23;;;2.70;;
10063;SDS011;5071;52.360;13.134;2022-10-17T18:45:12;3.80;;;2.27;;
10063;SDS011;5071;52.360;13.134;2022-10-17T18:50:13;4.67;;;2.70;;
10063;SDS011;5071;52.360;13.134;2022-10-17T18:55:17;3.30;;;2.63;;
10063;SDS011;5071;52.360;13.134;2022-10-17T19:00:19;5.30;;;3.60;;
10063;SDS011;5071;52.360;13.134;2022-10-17T19:05:21;6.50;;;3.27;;
10063;SDS011;5071;52.360;13.134;2022-10-17T19:10:25;3.33;;;2.30;;
10063;SDS011;5071;52.360;13.134;2022-10-17T19:15:26;4.60;;;2.70;;
10063;SDS011;5071;52.360;13.134;2022-10-17T19:20:28;3.97;;;2.83;;
10063;SDS011;5071;52.360;13.134;2022-10-17T19:25:33;2.80;;;2.33;;
10063;SDS011;5071;52.360;13.134;2022-10-17T19:30:35;2.70;;;2.40;;
10063;SDS011;5071;52.360;13.134;2022-10-17T19:35:36;4.60;;;1.87;;
10063;SDS011;5071;52.360;13.134;2022-10-17T19:40:40;3.23;;;2.00;;
10063;SDS011;5071;52.360;13.134;2022-10-17T19:45:42;4.03;;;2.20;;
10063;SDS011;5071;52.360;13.134;2022-10-17T19:50:44;2.87;;;2.00;;
10063;SDS011;5071;52.360;13.134;2022-10-17T19:55:47;4.90;;;2.53;;
10063;SDS011;5071;52.360;13.134;2022-10-17T20:00:49;4.23;;;2.93;;
10063;SDS011;5071;52.360;13.134;2022-10-17T20:05:52;2.93;;;2.30;;
10063;SDS011;5071;52.360;13.134;2022-10-17T20:10:56;4.57;;;2.30;;
10063;SDS011;5071;52.360;13.134;2022-10-17T20:16:03;2.70;;;2.10;;
10063;SDS011;5071;52.360;13.134;2022-10-17T20:21:07;3.53;;;2.30;;
10063;SDS011;5071;52.360;13.134;2022-10-17T20:26:12;3.50;;;2.43;;
10063;SDS011;5071;52.360;13.134;2022-10-17T20:31:36;3.23;;;2.23;;
10063;SDS011;5071;52.360;13.134;2022-10-17T20:36:37;3.80;;;2.30;;
10063;SDS011;5071;52.360;13.134;2022-10-17T20:41:41;3.40;;;2.30;;
10063;SDS011;5071;52.360;13.134;2022-10-17T20:46:44;2.93;;;2.20;;
10063;SDS011;5071;52.360;13.134;2022-10-17T20:52:02;3.33;;;2.07;;
10063;SDS011;5071;52.360;13.134;2022-10-17T20:57:05;4.00;;;2.83;;
10063;SDS011;5071;52.360;13.134;2022-10-17T21:02:09;3.93;;;2.73;;
10063;SDS011;5071;52.360;13.134;2022-10-17T21:07:12;3.67;;;2.87;;
10063;SDS011;5071;52.360;13.134;2022-10-17T21:12:15;3.97;;;3.07;;
10063;SDS011;5071;52.360;13.134;2022-10-17T21:17:37;3.73;;;2.80;;
10063;SDS011;5071;52.360;13.134;2022-10-17T21:22:39;3.47;;;2.53;;
10063;SDS011;5071;52.360;13.134;2022-10-17T21:27:42;4.80;;;3.43;;
10063;SDS011;5071;52.360;13.134;2022-10-17T21:32:44;4.97;;;2.70;;
10063;SDS011;5071;52.360;13.134;2022-10-17T21:37:54;4.17;;;2.60;;
10063;SDS011;5071;52.360;13.134;2022-10-17T21:42:57;5.30;;;3.13;;
10063;SDS011;5071;52.360;13.134;2022-10-17T21:47:59;3.57;;;2.13;;
10063;SDS011;5071;52.360;13.134;2022-10-17T21:53:13;4.83;;;2.70;;
10063;SDS011;5071;52.360;13.134;2022-10-17T21:58:18;4.60;;;3.10;;
10063;SDS011;5071;52.360;13.134;2022-10-17T22:03:20;3.80;;;2.97;;
10063;SDS011;5071;52.360;13.134;2022-10-17T22:08:22;3.83;;;2.60;;
10063;SDS011;5071;52.360;13.134;2022-10-17T22:13:25;3.70;;;2.80;;
10063;SDS011;5071;52.360;13.134;2022-10-17T22:18:27;4.77;;;2.47;;
10063;SDS011;5071;52.360;13.134;2022-10-17T22:23:29;3.27;;;2.70;;
10063;SDS011;5071;52.360;13.134;2022-10-17T22:28:32;3.57;;;2.73;;
10063;SDS011;5071;52.360;13.134;2022-10-17T22:33:35;4.80;;;3.30;;
10063;SDS011;5071;52.360;13.134;2022-10-17T22:38:38;3.73;;;2.67;;
10063;SDS011;5071;52.360;13.134;2022-10-17T22:43:41;3.83;;;3.20;;
10063;SDS011;5071;52.360;13.134;2022-10-17T22:48:44;3.37;;;2.67;;
10063;SDS011;5071;52.360;13.134;2022-10-17T22:53:46;2.93;;;2.20;;
10063;SDS011;5071;52.360;13.134;2022-10-17T22:58:49;6.20;;;3.37;;
10063;SDS011;5071;52.360;13.134;2022-10-17T23:03:52;4.87;;;3.50;;
10063;SDS011;5071;52.360;13.134;2022-10-17T23:08:54;4.20;;;2.87;;
10063;SDS011;5071;52.360;13.134;2022-10-17T23:13:57;4.77;;;2.60;;
10063;SDS011;5071;52.360;13.134;2022-10-17T23:18:59;6.43;;;3.23;;
10063;SDS011;5071;52.360;13.134;2022-10-17T23:24:01;6.23;;;2.67;;
10063;SDS011;5071;52.360;13.134;2022-10-17T23:29:04;4.60;;;2.93;;
10063;SDS011;5071;52.360;13.134;2022-10-17T23:34:06;4.03;;;3.13;;
10063;SDS011;5071;52.360;13.134;2022-10-17T23:39:08;5.37;;;3.10;;
10063;SDS011;5071;52.360;13.134;2022-10-17T23:44:13;4.27;;;2.87;;
10063;SDS011;5071;52.360;13.134;2022-10-17T23:49:15;3.50;;;2.70;;
10063;SDS011;5071;52.360;13.134;2022-10-17T23:54:17;3.77;;;3.37;;
10063;SDS011;5071;52.360;13.134;2022-10-17T23:59:20;4.13;;;3.00;;
